sensor_id;sensor_type;location;lat;lon;timestamp;pressure;altitude;pressure_sealevel;temperature;humidity
14242;BME280;7205;50.864;12.766;2023-04-03T00:02:10;98589.53;;;3.61;66.74
14242;BME280;7205;50.864;12.766;2023-04-03T00:04:37;98597.69;;;3.57;67.33
14242;BME280;7205;50.864;12.766;2023-04-03T00:07:04;98598.13;;;3.51;66.99
14242;BME280;7205;50.864;12.766;2023-04-03T00:09:30;98596.75;;;3.45;67.08
14242;BME280;7205;50.864;12.766;2023-04-03T00:11:57;98599.09;;;3.37;67.15
14242;BME280;7205;50.864;12.766;2023-04-03T00:14:24;98599.19;;;3.36;67.65
14242;BME280;7205;50.864;12.766;2023-04-03T00:16:51;98590.00;;;3.30;67.40
14242;BME280;7205;50.864;12.766;2023-04-03T00:19:19;98597.84;;;3.30;67.25
14242;BME280;7205;50.864;12.766;2023-04-03T00:21:46;98597.94;;;3.29;67.34
14242;BME280;7205;50.864;12.766;2023-04-03T00:24:13;98601.50;;;3.28;67.87
14242;BME280;7205;50.864;12.766;2023-04-03T00:26:40;98603.06;;;3.30;67.59
14242;BME280;7205;50.864;12.766;2023-04-03T00:29:06;98601.19;;;3.32;67.73
14242;BME280;7205;50.864;12.766;2023-04-03T00:31:33;98604.00;;;3.29;67.04
14242;BME280;7205;50.864;12.766;2023-04-03T00:34:00;98604.75;;;3.31;67.22
14242;BME280;7205;50.864;12.766;2023-04-03T00:36:29;98602.75;;;3.35;67.70
14242;BME280;7205;50.864;12.766;2023-04-03T00:38:55;98609.63;;;3.36;67.28
14242;BME280;7205;50.864;12.766;2023-04-03T00:41:22;98617.47;;;3.36;67.10
14242;BME280;7205;50.864;12.766;2023-04-03T00:43:49;98611.41;;;3.35;66.94
14242;BME280;7205;50.864;12.766;2023-04-03T00:46:16;98603.16;;;3.29;67.30
14242;BME280;7205;50.864;12.766;2023-04-03T00:48:45;98609.84;;;3.33;67.23
14242;BME280;7205;50.864;12.766;2023-04-03T00:51:14;98608.91;;;3.34;67.10
14242;BME280;7205;50.864;12.766;2023-04-03T00:53:49;98614.00;;;3.35;67.15
14242;BME280;7205;50.864;12.766;2023-04-03T00:56:19;98609.75;;;3.34;66.87
14242;BME280;7205;50.864;12.766;2023-04-03T00:58:50;98614.84;;;3.36;66.56
14242;BME280;7205;50.864;12.766;2023-04-03T01:01:21;98619.13;;;3.37;67.33
14242;BME280;7205;50.864;12.766;2023-04-03T01:03:49;98616.63;;;3.35;66.94
14242;BME280;7205;50.864;12.766;2023-04-03T01:06:21;98609.00;;;3.32;66.80
14242;BME280;7205;50.864;12.766;2023-04-03T01:08:51;98613.38;;;3.32;66.85
14242;BME280;7205;50.864;12.766;2023-04-03T01:11:19;98616.31;;;3.27;66.66
14242;BME280;7205;50.864;12.766;2023-04-03T01:13:47;98619.38;;;3.21;66.35
14242;BME280;7205;50.864;12.766;2023-04-03T01:16:14;98623.00;;;3.19;66.37
14242;BME280;7205;50.864;12.766;2023-04-03T01:18:42;98624.16;;;3.15;66.22
14242;BME280;7205;50.864;12.766;2023-04-03T01:21:41;98628.66;;;3.13;65.96
14242;BME280;7205;50.864;12.766;2023-04-03T01:24:34;98626.56;;;3.05;65.68
14242;BME280;7205;50.864;12.766;2023-04-03T01:27:07;98620.06;;;2.98;66.09
14242;BME280;7205;50.864;12.766;2023-04-03T01:29:36;98635.19;;;2.93;65.45
14242;BME280;7205;50.864;12.766;2023-04-03T01:32:05;98637.22;;;2.90;66.33
14242;BME280;7205;50.864;12.766;2023-04-03T01:34:32;98646.69;;;2.91;65.99
14242;BME280;7205;50.864;12.766;2023-04-03T01:37:00;98639.06;;;2.88;65.59
14242;BME280;7205;50.864;12.766;2023-04-03T01:39:27;98632.16;;;2.87;65.97
14242;BME280;7205;50.864;12.766;2023-04-03T01:41:54;98635.63;;;2.87;65.72
14242;BME280;7205;50.864;12.766;2023-04-03T01:44:28;98638.44;;;2.84;65.66
14242;BME280;7205;50.864;12.766;2023-04-03T01:46:55;98645.31;;;2.85;65.76
14242;BME280;7205;50.864;12.766;2023-04-03T01:49:25;98638.56;;;2.83;65.69
14242;BME280;7205;50.864;12.766;2023-04-03T01:51:52;98645.75;;;2.79;65.65
14242;BME280;7205;50.864;12.766;2023-04-03T01:54:18;98640.63;;;2.78;65.92
14242;BME280;7205;50.864;12.766;2023-04-03T01:56:48;98641.53;;;2.77;66.14
14242;BME280;7205;50.864;12.766;2023-04-03T01:59:15;98647.06;;;2.72;65.85
14242;BME280;7205;50.864;12.766;2023-04-03T02:01:43;98643.94;;;2.67;65.67
14242;BME280;7205;50.864;12.766;2023-04-03T02:04:12;98643.31;;;2.64;66.01
14242;BME280;7205;50.864;12.766;2023-04-03T02:06:40;98645.28;;;2.60;65.67
14242;BME280;7205;50.864;12.766;2023-04-03T02:09:07;98647.88;;;2.60;65.59
14242;BME280;7205;50.864;12.766;2023-04-03T02:11:34;98643.09;;;2.54;66.01
14242;BME280;7205;50.864;12.766;2023-04-03T02:14:01;98646.91;;;2.48;66.17
14242;BME280;7205;50.864;12.766;2023-04-03T02:16:29;98642.75;;;2.46;65.98
14242;BME280;7205;50.864;12.766;2023-04-03T02:18:56;98637.81;;;2.41;66.01
14242;BME280;7205;50.864;12.766;2023-04-03T02:21:23;98645.66;;;2.41;66.37
14242;BME280;7205;50.864;12.766;2023-04-03T02:23:51;98642.22;;;2.41;66.04
14242;BME280;7205;50.864;12.766;2023-04-03T02:26:18;98640.44;;;2.41;66.65
14242;BME280;7205;50.864;12.766;2023-04-03T02:28:45;98643.97;;;2.40;66.73
14242;BME280;7205;50.864;12.766;2023-04-03T02:31:12;98643.25;;;2.38;66.75
14242;BME280;7205;50.864;12.766;2023-04-03T02:33:41;98648.56;;;2.37;66.63
14242;BME280;7205;50.864;12.766;2023-04-03T02:36:09;98653.03;;;2.35;66.52
14242;BME280;7205;50.864;12.766;2023-04-03T02:38:39;98647.06;;;2.33;66.70
14242;BME280;7205;50.864;12.766;2023-04-03T02:41:09;98658.44;;;2.32;66.39
14242;BME280;7205;50.864;12.766;2023-04-03T02:43:36;98654.56;;;2.25;66.33
14242;BME280;7205;50.864;12.766;2023-04-03T02:46:05;98662.47;;;2.23;66.43
14242;BME280;7205;50.864;12.766;2023-04-03T02:48:32;98648.91;;;2.18;66.44
14242;BME280;7205;50.864;12.766;2023-04-03T02:50:59;98657.66;;;2.17;67.01
14242;BME280;7205;50.864;12.766;2023-04-03T02:53:26;98661.28;;;2.15;66.71
14242;BME280;7205;50.864;12.766;2023-04-03T02:55:53;98653.22;;;2.05;67.08
14242;BME280;7205;50.864;12.766;2023-04-03T02:58:21;98671.25;;;2.08;66.88
14242;BME280;7205;50.864;12.766;2023-04-03T03:00:50;98663.75;;;2.04;66.94
14242;BME280;7205;50.864;12.766;2023-04-03T03:03:16;98661.41;;;1.99;66.84
14242;BME280;7205;50.864;12.766;2023-04-03T03:05:43;98663.41;;;1.96;67.15
14242;BME280;7205;50.864;12.766;2023-04-03T03:08:11;98658.66;;;1.88;67.22
14242;BME280;7205;50.864;12.766;2023-04-03T03:10:37;98669.09;;;1.88;67.43
14242;BME280;7205;50.864;12.766;2023-04-03T03:13:04;98673.63;;;1.85;67.64
14242;BME280;7205;50.864;12.766;2023-04-03T03:15:33;98663.53;;;1.80;67.53
14242;BME280;7205;50.864;12.766;2023-04-03T03:18:01;98672.44;;;1.76;67.72
14242;BME280;7205;50.864;12.766;2023-04-03T03:20:28;98673.47;;;1.74;67.54
14242;BME280;7205;50.864;12.766;2023-04-03T03:22:58;98679.69;;;1.71;68.06
14242;BME280;7205;50.864;12.766;2023-04-03T03:25:24;98679.06;;;1.68;68.03
14242;BME280;7205;50.864;12.766;2023-04-03T03:27:51;98677.59;;;1.64;68.12
14242;BME280;7205;50.864;12.766;2023-04-03T03:30:18;98676.09;;;1.60;68.21
14242;BME280;7205;50.864;12.766;2023-04-03T03:32:47;98683.25;;;1.56;67.83
14242;BME280;7205;50.864;12.766;2023-04-03T03:35:14;98681.94;;;1.49;68.46
14242;BME280;7205;50.864;12.766;2023-04-03T03:37:40;98689.94;;;1.46;68.65
14242;BME280;7205;50.864;12.766;2023-04-03T03:40:09;98687.34;;;1.46;68.85
14242;BME280;7205;50.864;12.766;2023-04-03T03:42:37;98690.97;;;1.44;68.64
14242;BME280;7205;50.864;12.766;2023-04-03T03:45:04;98697.09;;;1.43;69.02
14242;BME280;7205;50.864;12.766;2023-04-03T03:47:31;98694.59;;;1.41;68.84
14242;BME280;7205;50.864;12.766;2023-04-03T03:50:00;98699.03;;;1.39;68.90
14242;BME280;7205;50.864;12.766;2023-04-03T03:52:27;98699.22;;;1.36;68.90
14242;BME280;7205;50.864;12.766;2023-04-03T03:54:55;98693.56;;;1.29;69.05
14242;BME280;7205;50.864;12.766;2023-04-03T03:57:22;98700.72;;;1.26;68.99
14242;BME280;7205;50.864;12.766;2023-04-03T03:59:49;98699.97;;;1.24;69.29
14242;BME280;7205;50.864;12.766;2023-04-03T04:02:18;98705.34;;;1.21;69.33
14242;BME280;7205;50.864;12.766;2023-04-03T04:04:44;98709.91;;;1.17;69.65
14242;BME280;7205;50.864;12.766;2023-04-03T04:07:13;98711.84;;;1.14;69.79
14242;BME280;7205;50.864;12.766;2023-04-03T04:09:40;98700.88;;;1.09;69.39
14242;BME280;7205;50.864;12.766;2023-04-03T04:12:08;98708.84;;;1.06;69.54
14242;BME280;7205;50.864;12.766;2023-04-03T04:14:36;98710.78;;;1.02;69.41
14242;BME280;7205;50.864;12.766;2023-04-03T04:17:05;98711.25;;;0.95;70.39
14242;BME280;7205;50.864;12.766;2023-04-03T04:19:32;98715.88;;;0.90;70.02
14242;BME280;7205;50.864;12.766;2023-04-03T04:21:59;98716.06;;;0.87;69.97
14242;BME280;7205;50.864;12.766;2023-04-03T04:24:28;98720.41;;;0.86;70.85
14242;BME280;7205;50.864;12.766;2023-04-03T04:26:56;98711.69;;;0.87;70.76
14242;BME280;7205;50.864;12.766;2023-04-03T04:29:24;98722.28;;;0.84;71.14
14242;BME280;7205;50.864;12.766;2023-04-03T04:31:51;98723.28;;;0.82;70.95
14242;BME280;7205;50.864;12.766;2023-04-03T04:34:20;98725.22;;;0.78;70.50
14242;BME280;7205;50.864;12.766;2023-04-03T04:36:46;98724.66;;;0.73;70.75
14242;BME280;7205;50.864;12.766;2023-04-03T04:39:13;98723.31;;;0.66;70.60
14242;BME280;7205;50.864;12.766;2023-04-03T04:41:42;98732.31;;;0.61;71.00
14242;BME280;7205;50.864;12.766;2023-04-03T04:44:09;98730.72;;;0.58;71.12
14242;BME280;7205;50.864;12.766;2023-04-03T04:46:36;98733.66;;;0.52;71.74
14242;BME280;7205;50.864;12.766;2023-04-03T04:49:04;98729.56;;;0.48;71.59
14242;BME280;7205;50.864;12.766;2023-04-03T04:51:32;98739.28;;;0.45;72.05
14242;BME280;7205;50.864;12.766;2023-04-03T04:53:59;98742.88;;;0.42;72.38
14242;BME280;7205;50.864;12.766;2023-04-03T04:56:26;98739.63;;;0.39;72.36
14242;BME280;7205;50.864;12.766;2023-04-03T04:58:57;98750.94;;;0.38;72.53
14242;BME280;7205;50.864;12.766;2023-04-03T05:01:25;98745.16;;;0.33;72.55
14242;BME280;7205;50.864;12.766;2023-04-03T05:04:04;98747.09;;;0.29;72.75
14242;BME280;7205;50.864;12.766;2023-04-03T05:06:31;98763.59;;;0.28;73.31
14242;BME280;7205;50.864;12.766;2023-04-03T05:09:00;98751.59;;;0.26;73.47
14242;BME280;7205;50.864;12.766;2023-04-03T05:11:28;98755.16;;;0.25;73.56
14242;BME280;7205;50.864;12.766;2023-04-03T05:13:57;98762.94;;;0.25;73.76
14242;BME280;7205;50.864;12.766;2023-04-03T05:16:24;98763.03;;;0.23;73.74
14242;BME280;7205;50.864;12.766;2023-04-03T05:18:52;98769.19;;;0.21;74.19
14242;BME280;7205;50.864;12.766;2023-04-03T05:21:21;98762.25;;;0.21;74.52
14242;BME280;7205;50.864;12.766;2023-04-03T05:23:51;98771.88;;;0.19;74.59
14242;BME280;7205;50.864;12.766;2023-04-03T05:26:19;98765.84;;;0.19;74.95
14242;BME280;7205;50.864;12.766;2023-04-03T05:28:48;98776.09;;;0.22;75.03
14242;BME280;7205;50.864;12.766;2023-04-03T05:31:16;98770.13;;;0.20;75.03
14242;BME280;7205;50.864;12.766;2023-04-03T05:33:43;98774.41;;;0.21;75.67
14242;BME280;7205;50.864;12.766;2023-04-03T05:36:15;98776.50;;;0.30;76.63
14242;BME280;7205;50.864;12.766;2023-04-03T05:38:45;98776.81;;;0.39;76.63
14242;BME280;7205;50.864;12.766;2023-04-03T05:41:14;98776.50;;;0.45;76.71
14242;BME280;7205;50.864;12.766;2023-04-03T05:43:43;98777.16;;;0.49;77.09
14242;BME280;7205;50.864;12.766;2023-04-03T05:46:11;98772.53;;;0.54;76.83
14242;BME280;7205;50.864;12.766;2023-04-03T05:48:44;98779.34;;;0.56;76.98
14242;BME280;7205;50.864;12.766;2023-04-03T05:51:16;98780.91;;;0.59;76.79
14242;BME280;7205;50.864;12.766;2023-04-03T05:53:46;98784.94;;;0.64;76.71
14242;BME280;7205;50.864;12.766;2023-04-03T05:56:14;98783.00;;;0.68;77.14
14242;BME280;7205;50.864;12.766;2023-04-03T05:58:40;98785.25;;;0.74;77.10
14242;BME280;7205;50.864;12.766;2023-04-03T06:01:07;98791.88;;;0.79;77.04
14242;BME280;7205;50.864;12.766;2023-04-03T06:03:35;98794.16;;;0.85;76.94
14242;BME280;7205;50.864;12.766;2023-04-03T06:06:05;98792.03;;;0.92;76.72
14242;BME280;7205;50.864;12.766;2023-04-03T06:08:34;98799.56;;;0.96;76.92
14242;BME280;7205;50.864;12.766;2023-04-03T06:11:01;98798.78;;;1.10;77.22
14242;BME280;7205;50.864;12.766;2023-04-03T06:13:28;98807.53;;;1.23;76.49
14242;BME280;7205;50.864;12.766;2023-04-03T06:15:55;98806.84;;;1.35;76.47
14242;BME280;7205;50.864;12.766;2023-04-03T06:18:23;98806.03;;;1.49;76.36
14242;BME280;7205;50.864;12.766;2023-04-03T06:20:50;98812.94;;;1.64;76.16
14242;BME280;7205;50.864;12.766;2023-04-03T06:23:18;98807.16;;;1.73;75.13
14242;BME280;7205;50.864;12.766;2023-04-03T06:25:45;98804.00;;;1.82;74.54
14242;BME280;7205;50.864;12.766;2023-04-03T06:28:12;98805.78;;;1.95;74.43
14242;BME280;7205;50.864;12.766;2023-04-03T06:30:39;98805.19;;;2.04;73.58
14242;BME280;7205;50.864;12.766;2023-04-03T06:33:06;98804.47;;;2.16;73.29
14242;BME280;7205;50.864;12.766;2023-04-03T06:35:33;98803.06;;;2.25;72.56
14242;BME280;7205;50.864;12.766;2023-04-03T06:38:00;98804.34;;;2.32;71.74
14242;BME280;7205;50.864;12.766;2023-04-03T06:40:31;98810.88;;;2.39;71.82
14242;BME280;7205;50.864;12.766;2023-04-03T06:42:57;98803.84;;;2.39;70.65
14242;BME280;7205;50.864;12.766;2023-04-03T06:45:24;98812.63;;;2.38;69.97
14242;BME280;7205;50.864;12.766;2023-04-03T06:47:51;98821.38;;;2.37;69.49
14242;BME280;7205;50.864;12.766;2023-04-03T06:50:18;98815.22;;;2.38;68.89
14242;BME280;7205;50.864;12.766;2023-04-03T06:52:45;98831.13;;;2.48;69.28
14242;BME280;7205;50.864;12.766;2023-04-03T06:55:12;98826.09;;;2.59;69.45
14242;BME280;7205;50.864;12.766;2023-04-03T06:57:40;98824.69;;;2.68;69.29
14242;BME280;7205;50.864;12.766;2023-04-03T07:00:08;98831.25;;;2.73;69.05
14242;BME280;7205;50.864;12.766;2023-04-03T07:02:36;98823.25;;;2.76;68.37
14242;BME280;7205;50.864;12.766;2023-04-03T07:05:03;98836.63;;;2.84;68.35
14242;BME280;7205;50.864;12.766;2023-04-03T07:07:31;98835.69;;;2.85;67.39
14242;BME280;7205;50.864;12.766;2023-04-03T07:09:59;98843.84;;;2.93;67.68
14242;BME280;7205;50.864;12.766;2023-04-03T07:12:26;98843.78;;;2.95;66.90
14242;BME280;7205;50.864;12.766;2023-04-03T07:14:54;98849.00;;;2.95;66.61
14242;BME280;7205;50.864;12.766;2023-04-03T07:17:21;98844.50;;;2.97;66.05
14242;BME280;7205;50.864;12.766;2023-04-03T07:19:48;98847.66;;;3.02;65.89
14242;BME280;7205;50.864;12.766;2023-04-03T07:22:16;98849.34;;;3.03;64.80
14242;BME280;7205;50.864;12.766;2023-04-03T07:24:43;98865.63;;;3.06;64.41
14242;BME280;7205;50.864;12.766;2023-04-03T07:27:10;98857.59;;;3.09;64.83
14242;BME280;7205;50.864;12.766;2023-04-03T07:29:41;98864.44;;;3.24;65.05
14242;BME280;7205;50.864;12.766;2023-04-03T07:32:10;98865.50;;;3.34;64.68
14242;BME280;7205;50.864;12.766;2023-04-03T07:34:37;98858.44;;;3.36;63.93
14242;BME280;7205;50.864;12.766;2023-04-03T07:37:20;98862.38;;;3.42;63.74
14242;BME280;7205;50.864;12.766;2023-04-03T07:40:09;98869.09;;;3.46;63.51
14242;BME280;7205;50.864;12.766;2023-04-03T07:45:52;98869.50;;;3.92;65.03
14242;BME280;7205;50.864;12.766;2023-04-03T07:48:25;98876.59;;;4.15;64.66
14242;BME280;7205;50.864;12.766;2023-04-03T07:50:52;98866.63;;;4.32;64.15
14242;BME280;7205;50.864;12.766;2023-04-03T07:53:28;98877.16;;;4.56;64.07
14242;BME280;7205;50.864;12.766;2023-04-03T07:56:00;98876.31;;;4.68;62.48
14242;BME280;7205;50.864;12.766;2023-04-03T07:58:28;98871.09;;;4.68;60.82
14242;BME280;7205;50.864;12.766;2023-04-03T08:01:16;98865.69;;;4.58;59.42
14242;BME280;7205;50.864;12.766;2023-04-03T08:03:59;98870.41;;;4.53;58.76
14242;BME280;7205;50.864;12.766;2023-04-03T08:06:53;98872.69;;;4.58;59.40
14242;BME280;7205;50.864;12.766;2023-04-03T08:09:45;98863.25;;;4.68;59.08
14242;BME280;7205;50.864;12.766;2023-04-03T08:12:13;98871.38;;;4.76;58.75
14242;BME280;7205;50.864;12.766;2023-04-03T08:15:17;98879.63;;;4.82;58.63
14242;BME280;7205;50.864;12.766;2023-04-03T08:17:57;98868.00;;;4.86;57.80
14242;BME280;7205;50.864;12.766;2023-04-03T08:23:57;98870.56;;;4.99;56.90
14242;BME280;7205;50.864;12.766;2023-04-03T08:26:24;98882.88;;;5.09;57.26
14242;BME280;7205;50.864;12.766;2023-04-03T08:32:38;98882.47;;;5.16;56.55
14242;BME280;7205;50.864;12.766;2023-04-03T08:35:09;98882.50;;;5.27;56.35
14242;BME280;7205;50.864;12.766;2023-04-03T08:37:37;98889.38;;;5.40;56.71
14242;BME280;7205;50.864;12.766;2023-04-03T08:40:10;98889.09;;;5.56;56.31
14242;BME280;7205;50.864;12.766;2023-04-03T08:42:52;98887.44;;;5.66;55.92
14242;BME280;7205;50.864;12.766;2023-04-03T08:45:51;98884.97;;;5.75;55.22
14242;BME280;7205;50.864;12.766;2023-04-03T08:49:31;98888.84;;;5.82;54.48
14242;BME280;7205;50.864;12.766;2023-04-03T08:51:59;98893.00;;;5.85;54.02
14242;BME280;7205;50.864;12.766;2023-04-03T08:54:48;98890.63;;;5.93;53.78
14242;BME280;7205;50.864;12.766;2023-04-03T08:57:18;98896.59;;;5.95;53.21
14242;BME280;7205;50.864;12.766;2023-04-03T08:59:46;98886.13;;;5.95;53.05
14242;BME280;7205;50.864;12.766;2023-04-03T09:02:23;98893.66;;;5.99;53.38
14242;BME280;7205;50.864;12.766;2023-04-03T09:04:52;98890.69;;;6.04;53.28
14242;BME280;7205;50.864;12.766;2023-04-03T09:07:23;98893.88;;;5.96;51.76
14242;BME280;7205;50.864;12.766;2023-04-03T09:09:52;98903.31;;;5.75;51.11
14242;BME280;7205;50.864;12.766;2023-04-03T09:12:23;98904.50;;;5.48;50.79
14242;BME280;7205;50.864;12.766;2023-04-03T09:14:57;98903.06;;;5.20;50.38
14242;BME280;7205;50.864;12.766;2023-04-03T09:17:36;98912.13;;;5.03;51.01
14242;BME280;7205;50.864;12.766;2023-04-03T09:20:15;98912.53;;;4.97;51.97
14242;BME280;7205;50.864;12.766;2023-04-03T09:22:44;98909.13;;;4.97;51.91
14242;BME280;7205;50.864;12.766;2023-04-03T09:25:14;98908.78;;;5.01;51.31
14242;BME280;7205;50.864;12.766;2023-04-03T09:27:44;98909.28;;;5.06;51.28
14242;BME280;7205;50.864;12.766;2023-04-03T09:30:13;98907.06;;;5.13;51.97
14242;BME280;7205;50.864;12.766;2023-04-03T09:32:44;98908.22;;;5.09;51.00
14242;BME280;7205;50.864;12.766;2023-04-03T09:35:20;98905.81;;;5.06;50.29
14242;BME280;7205;50.864;12.766;2023-04-03T09:37:48;98909.50;;;5.03;50.90
14242;BME280;7205;50.864;12.766;2023-04-03T09:40:31;98907.06;;;5.13;51.55
14242;BME280;7205;50.864;12.766;2023-04-03T09:43:02;98909.03;;;5.22;51.27
14242;BME280;7205;50.864;12.766;2023-04-03T09:45:31;98905.13;;;5.28;50.97
14242;BME280;7205;50.864;12.766;2023-04-03T09:48:06;98893.09;;;5.25;51.23
14242;BME280;7205;50.864;12.766;2023-04-03T09:50:34;98902.31;;;5.31;51.56
14242;BME280;7205;50.864;12.766;2023-04-03T09:53:05;98891.25;;;5.38;52.10
14242;BME280;7205;50.864;12.766;2023-04-03T09:55:42;98895.94;;;5.46;51.89
14242;BME280;7205;50.864;12.766;2023-04-03T09:58:26;98900.50;;;5.55;51.21
14242;BME280;7205;50.864;12.766;2023-04-03T10:00:57;98903.28;;;5.64;50.68
14242;BME280;7205;50.864;12.766;2023-04-03T10:03:27;98897.69;;;5.69;49.74
14242;BME280;7205;50.864;12.766;2023-04-03T10:05:55;98903.59;;;5.60;49.04
14242;BME280;7205;50.864;12.766;2023-04-03T10:08:26;98896.56;;;5.49;49.22
14242;BME280;7205;50.864;12.766;2023-04-03T10:11:11;98891.88;;;5.42;49.53
14242;BME280;7205;50.864;12.766;2023-04-03T10:13:58;98890.63;;;5.35;49.05
14242;BME280;7205;50.864;12.766;2023-04-03T10:16:29;98883.75;;;5.34;49.37
14242;BME280;7205;50.864;12.766;2023-04-03T10:19:31;98883.50;;;5.37;49.58
14242;BME280;7205;50.864;12.766;2023-04-03T10:22:02;98890.34;;;5.50;50.08
14242;BME280;7205;50.864;12.766;2023-04-03T10:24:37;98884.94;;;5.64;50.61
14242;BME280;7205;50.864;12.766;2023-04-03T10:27:13;98881.63;;;5.73;49.60
14242;BME280;7205;50.864;12.766;2023-04-03T10:29:49;98872.47;;;5.79;49.07
14242;BME280;7205;50.864;12.766;2023-04-03T10:32:31;98879.56;;;5.89;49.34
14242;BME280;7205;50.864;12.766;2023-04-03T10:35:09;98876.97;;;6.00;49.51
14242;BME280;7205;50.864;12.766;2023-04-03T10:37:51;98884.84;;;6.11;49.05
14242;BME280;7205;50.864;12.766;2023-04-03T10:40:27;98870.44;;;6.17;49.03
14242;BME280;7205;50.864;12.766;2023-04-03T10:43:04;98872.38;;;6.26;49.23
14242;BME280;7205;50.864;12.766;2023-04-03T10:45:48;98871.63;;;6.35;49.31
14242;BME280;7205;50.864;12.766;2023-04-03T10:48:26;98870.09;;;6.44;48.51
14242;BME280;7205;50.864;12.766;2023-04-03T10:51:06;98877.25;;;6.53;47.71
14242;BME280;7205;50.864;12.766;2023-04-03T10:53:39;98866.28;;;6.59;47.34
14242;BME280;7205;50.864;12.766;2023-04-03T10:56:15;98858.75;;;6.65;47.35
14242;BME280;7205;50.864;12.766;2023-04-03T10:58:48;98863.28;;;6.74;47.31
14242;BME280;7205;50.864;12.766;2023-04-03T11:01:21;98862.41;;;6.96;48.14
14242;BME280;7205;50.864;12.766;2023-04-03T11:03:52;98850.28;;;7.26;48.60
14242;BME280;7205;50.864;12.766;2023-04-03T11:06:21;98867.13;;;7.55;47.46
14242;BME280;7205;50.864;12.766;2023-04-03T11:08:55;98847.59;;;7.69;46.15
14242;BME280;7205;50.864;12.766;2023-04-03T11:11:25;98858.09;;;7.69;44.83
14242;BME280;7205;50.864;12.766;2023-04-03T11:13:56;98848.13;;;7.52;43.68
14242;BME280;7205;50.864;12.766;2023-04-03T11:16:30;98843.44;;;7.35;43.64
14242;BME280;7205;50.864;12.766;2023-04-03T11:19:01;98851.75;;;7.19;43.55
14242;BME280;7205;50.864;12.766;2023-04-03T11:21:33;98848.91;;;7.00;42.24
14242;BME280;7205;50.864;12.766;2023-04-03T11:24:03;98842.88;;;6.78;42.18
14242;BME280;7205;50.864;12.766;2023-04-03T11:26:39;98834.19;;;6.55;42.27
14242;BME280;7205;50.864;12.766;2023-04-03T11:29:10;98841.34;;;6.42;42.79
14242;BME280;7205;50.864;12.766;2023-04-03T11:31:56;98836.81;;;6.33;42.78
14242;BME280;7205;50.864;12.766;2023-04-03T11:34:34;98840.41;;;6.32;42.96
14242;BME280;7205;50.864;12.766;2023-04-03T11:37:10;98836.47;;;6.49;43.50
14242;BME280;7205;50.864;12.766;2023-04-03T11:39:39;98829.88;;;6.65;43.33
14242;BME280;7205;50.864;12.766;2023-04-03T11:42:15;98824.97;;;6.83;43.31
14242;BME280;7205;50.864;12.766;2023-04-03T11:44:43;98814.66;;;7.02;43.47
14242;BME280;7205;50.864;12.766;2023-04-03T11:47:43;98834.88;;;7.22;43.07
14242;BME280;7205;50.864;12.766;2023-04-03T11:50:31;98826.19;;;7.21;41.84
14242;BME280;7205;50.864;12.766;2023-04-03T11:53:01;98823.56;;;7.10;41.82
14242;BME280;7205;50.864;12.766;2023-04-03T11:55:52;98824.00;;;6.95;41.78
14242;BME280;7205;50.864;12.766;2023-04-03T11:58:22;98817.91;;;6.83;41.99
14242;BME280;7205;50.864;12.766;2023-04-03T12:00:52;98814.28;;;6.75;41.95
14242;BME280;7205;50.864;12.766;2023-04-03T12:07:01;98808.44;;;6.49;41.99
14242;BME280;7205;50.864;12.766;2023-04-03T12:09:51;98810.69;;;6.54;42.71
14242;BME280;7205;50.864;12.766;2023-04-03T12:12:32;98814.41;;;6.62;41.40
14242;BME280;7205;50.864;12.766;2023-04-03T12:18:37;98803.00;;;6.84;40.79
14242;BME280;7205;50.864;12.766;2023-04-03T12:21:07;98809.31;;;6.92;40.93
14242;BME280;7205;50.864;12.766;2023-04-03T12:23:36;98809.28;;;7.03;41.26
14242;BME280;7205;50.864;12.766;2023-04-03T12:26:24;98816.53;;;7.11;40.35
14242;BME280;7205;50.864;12.766;2023-04-03T12:28:53;98804.13;;;7.13;40.51
14242;BME280;7205;50.864;12.766;2023-04-03T12:31:23;98797.19;;;7.12;40.06
14242;BME280;7205;50.864;12.766;2023-04-03T12:34:18;98797.19;;;7.12;39.79
14242;BME280;7205;50.864;12.766;2023-04-03T12:36:58;98801.75;;;7.10;39.69
14242;BME280;7205;50.864;12.766;2023-04-03T12:39:48;98794.69;;;7.10;39.57
14242;BME280;7205;50.864;12.766;2023-04-03T12:42:38;98798.03;;;7.12;39.31
14242;BME280;7205;50.864;12.766;2023-04-03T12:45:16;98790.34;;;7.20;39.46
14242;BME280;7205;50.864;12.766;2023-04-03T12:47:45;98797.63;;;7.28;39.23
14242;BME280;7205;50.864;12.766;2023-04-03T12:50:21;98790.38;;;7.41;39.88
14242;BME280;7205;50.864;12.766;2023-04-03T12:52:57;98794.53;;;7.43;39.94
14242;BME280;7205;50.864;12.766;2023-04-03T12:55:27;98803.41;;;7.42;39.84
14242;BME280;7205;50.864;12.766;2023-04-03T12:57:56;98793.53;;;7.35;39.71
14242;BME280;7205;50.864;12.766;2023-04-03T13:00:31;98784.63;;;7.26;39.33
14242;BME280;7205;50.864;12.766;2023-04-03T13:03:01;98790.94;;;7.24;39.60
14242;BME280;7205;50.864;12.766;2023-04-03T13:05:30;98783.72;;;7.37;40.21
14242;BME280;7205;50.864;12.766;2023-04-03T13:07:59;98784.69;;;7.56;40.49
14242;BME280;7205;50.864;12.766;2023-04-03T13:10:29;98785.19;;;7.71;39.45
14242;BME280;7205;50.864;12.766;2023-04-03T13:12:58;98790.00;;;7.66;38.47
14242;BME280;7205;50.864;12.766;2023-04-03T13:15:28;98782.31;;;7.53;38.32
14242;BME280;7205;50.864;12.766;2023-04-03T13:17:56;98801.47;;;7.44;38.88
14242;BME280;7205;50.864;12.766;2023-04-03T13:20:25;98784.28;;;7.40;39.16
14242;BME280;7205;50.864;12.766;2023-04-03T13:22:57;98787.69;;;7.31;38.97
14242;BME280;7205;50.864;12.766;2023-04-03T13:25:27;98787.97;;;7.17;38.97
14242;BME280;7205;50.864;12.766;2023-04-03T13:27:57;98785.09;;;7.00;39.32
14242;BME280;7205;50.864;12.766;2023-04-03T13:30:28;98785.94;;;6.89;39.75
14242;BME280;7205;50.864;12.766;2023-04-03T13:32:56;98786.88;;;6.99;40.01
14242;BME280;7205;50.864;12.766;2023-04-03T13:35:30;98774.41;;;7.12;40.29
14242;BME280;7205;50.864;12.766;2023-04-03T13:38:00;98768.28;;;7.23;39.33
14242;BME280;7205;50.864;12.766;2023-04-03T13:40:27;98774.91;;;7.27;39.67
14242;BME280;7205;50.864;12.766;2023-04-03T13:43:05;98783.63;;;7.27;39.19
14242;BME280;7205;50.864;12.766;2023-04-03T13:45:33;98767.81;;;7.18;38.89
14242;BME280;7205;50.864;12.766;2023-04-03T13:48:16;98775.25;;;7.02;38.77
14242;BME280;7205;50.864;12.766;2023-04-03T13:50:53;98774.47;;;6.90;39.02